Terminal Aerodrome Forecast
Issued by NWS Twin Cities, MN

Home | Current Version | Previous Version | Graphics & Text | Print | Product List | Glossary On
Versions: 1 2 3 4 5 6 7 8 9 10 11 12 13 14 15 16 17
000
FTUS43 KMPX 311235 AAA
TAFSTC
TAF AMD
KSTC 311235Z 3113/0112 00000KT 1/4SM FG VV002
     FM311330 00000KT 3SM BR FEW002
     FM311400 30003KT P6SM SKC
     FM311700 30011KT P6SM FEW090
     FM010000 VRB04KT P6SM BKN090
     FM010500 13013G20KT P6SM SCT200=

USA.gov is the U.S. government's official web portal to all federal, state and local government web resources and services.